Time;durP1;ratioP1;P1;durP2;ratioP2;P2;SDS_P1;SDS_P2;PMS_P1;PMS_P2;Temp;Humidity;BMP_temperature;BMP_pressure;BME280_temperature;BME280_humidity;BME280_pressure;Samples;Min_cycle;Max_cycle;Signal;HPM_P1;HPM_P2
2021/12/29 00:00:11;;;;;;;36.83;20.27;;;;;;;-144.19;100.00;76128.47;5071805;28;20053;-86
2021/12/29 00:02:38;;;;;;;33.80;20.23;;;;;;;-144.19;100.00;76124.53;5055342;28;20045;-86
2021/12/29 00:05:06;;;;;;;;;;;;;;;-144.19;100.00;76112.72;5054816;28;20059;-83
2021/12/29 00:07:32;;;;;;;29.98;18.13;;;;;;;-144.19;100.00;76122.56;5054457;28;19920;-84
2021/12/29 00:10:02;;;;;;;36.57;21.70;;;;;;;-144.19;100.00;76116.66;5073955;28;20045;-85
2021/12/29 00:12:29;;;;;;;37.78;20.50;;;;;;;-144.19;100.00;76118.63;5054846;28;20056;-85
2021/12/29 00:14:56;;;;;;;41.38;22.17;;;;;;;-144.19;100.00;76104.84;5055332;28;20426;-85
2021/12/29 00:17:22;;;;;;;42.92;23.88;;;;;;;-144.19;100.00;76106.81;5054650;28;20055;-85
2021/12/29 00:19:49;;;;;;;37.95;23.80;;;;;;;-144.19;100.00;76098.97;5073042;28;20055;-86
2021/12/29 00:22:16;;;;;;;42.27;23.77;;;;;;;-144.19;100.00;76093.06;5054149;28;20048;-85
2021/12/29 00:24:42;;;;;;;46.30;26.17;;;;;;;-144.19;100.00;76087.16;5055021;28;20052;-83
2021/12/29 00:27:10;;;;;;;47.47;25.03;;;;;;;-144.19;100.00;76075.34;5054292;28;20055;-88
2021/12/29 00:29:36;;;;;;;46.50;22.42;;;;;;;-144.19;100.00;76071.41;5055027;28;20062;-84
2021/12/29 00:32:03;;;;;;;47.60;25.13;;;;;;;-144.19;100.00;76079.28;5054249;28;20058;-86
2021/12/29 00:34:29;;;;;;;37.55;20.58;;;;;;;-144.19;100.00;76077.31;5072122;28;20048;-85
2021/12/29 00:36:57;;;;;;;41.17;21.00;;;;;;;-144.19;100.00;76087.16;5074720;28;20048;-84
2021/12/29 00:39:23;;;;;;;39.58;20.73;;;;;;;-144.19;100.00;76083.22;5074474;28;20048;-85
2021/12/29 00:41:49;;;;;;;35.40;19.85;;;;;;;-144.19;100.00;76083.22;5081657;28;20047;-85
2021/12/29 00:44:16;;;;;;;37.23;20.40;;;;;;;-144.19;100.00;76089.13;5075081;28;20135;-85
2021/12/29 00:46:43;;;;;;;35.38;20.23;;;;;;;-144.19;100.00;76089.13;5072626;28;20131;-85
2021/12/29 00:49:10;;;;;;;33.20;19.65;;;;;;;-144.19;100.00;76085.19;5072355;28;20106;-84
2021/12/29 00:51:36;;;;;;;33.03;17.73;;;;;;;-144.19;100.00;76095.03;5054420;28;20048;-86
2021/12/29 00:54:04;;;;;;;31.03;17.17;;;;;;;-144.19;100.00;76095.03;5072302;28;20049;-85
2021/12/29 00:56:31;;;;;;;30.90;16.42;;;;;;;-144.19;100.00;76098.97;5053734;28;20418;-86
2021/12/29 00:58:57;;;;;;;35.37;18.00;;;;;;;-144.19;100.00;76098.97;5054394;28;20050;-84
2021/12/29 01:01:24;;;;;;;32.43;16.80;;;;;;;-144.19;100.00;76095.03;5072394;28;20052;-85
2021/12/29 01:03:50;;;;;;;29.13;16.75;;;;;;;-144.19;100.00;76100.94;5054145;28;20056;-85
2021/12/29 01:06:17;;;;;;;30.42;16.38;;;;;;;-144.19;100.00;76098.97;5054347;28;20052;-85
2021/12/29 01:08:43;;;;;;;29.80;15.87;;;;;;;-144.19;100.00;76093.06;5054075;28;20513;-85
2021/12/29 01:11:10;;;;;;;26.77;15.50;;;;;;;-144.19;100.00;76104.84;5071898;28;20143;-83
2021/12/29 01:13:44;;;;;;;27.42;16.13;;;;;;;-144.19;100.00;76108.78;5054630;28;20098;-85
2021/12/29 01:18:56;;;;;;;27.85;16.17;;;;;;;-144.19;100.00;76124.53;5071778;28;20564;-85
2021/12/29 01:21:23;;;;;;;28.23;16.13;;;;;;;-144.19;100.00;76118.63;5053536;28;20058;-85
2021/12/29 01:23:51;;;;;;;28.95;15.95;;;;;;;-144.19;100.00;76130.44;5071652;28;20048;-86
2021/12/29 01:26:17;;;;;;;28.93;15.73;;;;;;;-144.19;100.00;76130.44;5053796;28;20049;-85
2021/12/29 01:28:44;;;;;;;24.88;14.18;;;;;;;-144.19;100.00;76134.38;5054343;28;20297;-85
2021/12/29 01:31:10;;;;;;;26.17;14.93;;;;;;;-144.19;100.00;76130.44;5053580;28;20055;-84
2021/12/29 01:33:37;;;;;;;25.63;14.37;;;;;;;-144.19;100.00;76132.41;5071286;28;20044;-87
2021/12/29 01:36:03;;;;;;;27.05;14.63;;;;;;;-144.19;100.00;76142.25;5067698;28;20290;-84
2021/12/29 01:38:30;;;;;;;24.85;13.43;;;;;;;-144.19;100.00;76138.31;5073958;28;20052;-85
2021/12/29 01:40:57;;;;;;;22.75;12.75;;;;;;;-144.19;100.00;76150.13;5084755;28;20051;-84
2021/12/29 01:43:23;;;;;;;24.77;12.38;;;;;;;-144.19;100.00;76134.38;5084420;28;20044;-84
2021/12/29 01:45:50;;;;;;;20.80;11.67;;;;;;;-144.19;100.00;76140.28;5073777;28;20043;-87
2021/12/29 01:48:16;;;;;;;20.83;10.90;;;;;;;-144.19;100.00;76134.38;5073832;28;20294;-85
2021/12/29 01:50:48;;;;;;;19.15;9.57;;;;;;;-144.19;100.00;76130.44;5091548;28;20059;-85
2021/12/29 01:53:23;;;;;;;16.98;8.20;;;;;;;-144.19;100.00;76150.13;5073556;28;20052;-84
2021/12/29 01:55:50;;;;;;;15.68;7.47;;;;;;;-144.19;100.00;76148.16;5063074;28;20056;-86
2021/12/29 01:58:18;;;;;;;16.35;6.60;;;;;;;-144.19;100.00;76154.06;5053417;28;20445;-84
2021/12/29 02:00:45;;;;;;;15.43;6.45;;;;;;;-144.19;100.00;76154.06;5053655;28;20044;-85
2021/12/29 02:03:11;;;;;;;15.05;6.20;;;;;;;-144.19;100.00;76165.88;5053186;28;20059;-85
2021/12/29 02:05:39;;;;;;;14.73;7.13;;;;;;;-144.19;100.00;76163.91;5053192;28;20083;-84
2021/12/29 02:08:07;;;;;;;15.68;6.80;;;;;;;-144.19;100.00;76173.75;5070815;28;20717;-86
2021/12/29 02:10:46;;;;;;;13.02;5.95;;;;;;;-144.19;100.00;76193.44;5070020;28;20510;-84
2021/12/29 02:13:14;;;;;;;16.90;6.07;;;;;;;-144.19;100.00;76181.63;5052606;28;20071;-85
2021/12/29 02:15:40;;;;;;;12.65;5.55;;;;;;;-144.19;100.00;76189.50;5070954;28;20553;-86
2021/12/29 02:18:16;;;;;;;16.20;6.90;;;;;;;-144.19;100.00;76185.56;5069527;28;20529;-85
2021/12/29 02:20:46;;;;;;;16.38;6.05;;;;;;;-144.19;100.00;76199.34;5069914;28;20048;-86
2021/12/29 02:23:27;;;;;;;12.23;5.07;;;;;;;-144.19;100.00;76215.09;5070653;28;20045;-85
2021/12/29 02:25:56;;;;;;;13.85;5.40;;;;;;;-144.19;100.00;76205.25;5069395;28;20056;-86
2021/12/29 02:28:32;;;;;;;11.45;5.05;;;;;;;-144.19;100.00;76211.16;5052833;28;20131;-85
2021/12/29 02:30:59;;;;;;;13.82;5.25;;;;;;;-144.19;100.00;76209.19;5074927;28;20058;-86
2021/12/29 02:33:27;;;;;;;12.98;5.03;;;;;;;-144.19;100.00;76236.72;5072838;28;20052;-85
2021/12/29 02:35:54;;;;;;;14.23;5.00;;;;;;;-144.19;100.00;76232.78;5086330;28;20594;-86
2021/12/29 02:38:27;;;;;;;14.57;5.38;;;;;;;-144.19;100.00;76232.78;5076872;28;20063;-84
2021/12/29 02:40:58;;;;;;;10.70;5.10;;;;;;;-144.19;100.00;76232.78;5071163;28;20048;-86
2021/12/29 02:43:25;;;;;;;12.32;6.22;;;;;;;-144.19;100.00;76244.59;5062875;28;20648;-84
2021/12/29 02:45:58;;;;;;;;;;;;;;;-144.19;100.00;76240.66;5075228;28;20063;-84
2021/12/29 02:48:31;;;;;;;15.38;5.45;;;;;;;-144.19;100.00;76234.75;5074374;28;19920;-84
2021/12/29 02:50:59;;;;;;;17.38;6.03;;;;;;;-144.19;100.00;76260.34;5073905;28;20067;-86
2021/12/29 02:53:28;;;;;;;15.05;5.78;;;;;;;-144.19;100.00;76262.31;5073500;28;20110;-85
2021/12/29 02:55:55;;;;;;;15.50;6.30;;;;;;;-144.19;100.00;76244.59;5074620;28;20087;-85
2021/12/29 02:58:23;;;;;;;14.52;5.90;;;;;;;-144.19;100.00;76280.03;5074240;28;20056;-84
2021/12/29 03:00:51;;;;;;;15.30;6.43;;;;;;;-144.19;100.00;76283.97;5074335;28;20055;-83
2021/12/29 03:03:20;;;;;;;14.60;6.72;;;;;;;-144.19;100.00;76270.19;5074079;28;20047;-83
2021/12/29 03:05:48;;;;;;;17.40;6.68;;;;;;;-144.19;100.00;76283.97;5056199;28;20660;-84
2021/12/29 03:08:17;;;;;;;18.52;6.75;;;;;;;-144.19;100.00;76260.34;5072871;28;20064;-83
2021/12/29 03:10:45;;;;;;;18.45;6.40;;;;;;;-144.19;100.00;76283.97;5072648;28;20422;-87
2021/12/29 03:13:13;;;;;;;20.85;6.47;;;;;;;-144.19;100.00;76276.09;5055648;28;20048;-86
2021/12/29 03:15:40;;;;;;;20.67;7.28;;;;;;;-144.19;100.00;76285.94;5055485;28;20057;-86
2021/12/29 03:18:07;;;;;;;16.63;6.20;;;;;;;-144.19;100.00;76291.84;5072406;28;20102;-86
2021/12/29 03:20:33;;;;;;;19.33;6.85;;;;;;;-144.19;100.00;76291.84;5073411;28;20511;-85
2021/12/29 03:23:00;;;;;;;16.57;6.93;;;;;;;-144.19;100.00;76295.78;5055823;28;20044;-85
2021/12/29 03:25:27;;;;;;;21.10;6.57;;;;;;;-144.19;100.00;76303.66;5055934;28;20303;-85
2021/12/29 03:28:00;;;;;;;19.52;7.00;;;;;;;-144.19;100.00;76307.59;5056383;28;20055;-85
2021/12/29 03:30:30;;;;;;;19.92;7.20;;;;;;;-144.19;100.00;76307.59;5072907;28;20060;-83
2021/12/29 03:33:03;;;;;;;17.65;6.20;;;;;;;-144.19;100.00;76315.47;5074296;28;20048;-88
2021/12/29 03:35:34;;;;;;;20.20;6.68;;;;;;;-144.19;100.00;76303.66;5083132;28;20643;-86
2021/12/29 03:38:05;;;;;;;20.63;6.47;;;;;;;-144.19;100.00;76307.59;5076597;28;20567;-86
2021/12/29 03:40:35;;;;;;;18.40;7.15;;;;;;;-144.19;100.00;76315.47;5078786;28;20051;-85
2021/12/29 03:43:04;;;;;;;17.05;6.90;;;;;;;-144.19;100.00;76327.28;5058029;28;20045;-86
2021/12/29 03:45:30;;;;;;;17.40;6.40;;;;;;;-144.19;100.00;76319.41;5055427;28;20055;-83
2021/12/29 03:47:57;;;;;;;20.70;6.95;;;;;;;-144.19;100.00;76325.31;5056001;28;20060;-86
2021/12/29 03:50:23;;;;;;;17.23;6.60;;;;;;;-144.19;100.00;76319.41;5055519;28;20110;-82
2021/12/29 03:52:50;;;;;;;18.03;7.83;;;;;;;-144.19;100.00;76323.34;5055960;28;20044;-84
2021/12/29 03:55:17;;;;;;;18.10;6.35;;;;;;;-144.19;100.00;76319.41;5060542;28;20112;-85
2021/12/29 03:57:44;;;;;;;19.70;7.60;;;;;;;-144.19;100.00;76319.41;5063311;28;20417;-83
2021/12/29 04:00:15;;;;;;;20.30;7.93;;;;;;;-144.19;100.00;76315.47;5064776;28;20051;-86
2021/12/29 04:02:42;;;;;;;18.98;7.53;;;;;;;-144.19;100.00;76329.25;5069484;28;20052;-85
2021/12/29 04:05:12;;;;;;;23.27;7.68;;;;;;;-144.19;100.00;76321.38;5075711;28;20054;-89
2021/12/29 04:07:39;;;;;;;21.40;7.97;;;;;;;-144.19;100.00;76329.25;5075396;28;20044;-84
2021/12/29 04:10:07;;;;;;;19.77;7.95;;;;;;;-144.19;100.00;76331.22;5066335;28;20411;-86
2021/12/29 04:12:34;;;;;;;16.25;6.07;;;;;;;-144.19;100.00;76325.31;5075689;28;20049;-84
2021/12/29 04:15:00;;;;;;;20.40;7.63;;;;;;;-144.19;100.00;76307.59;5073258;28;20048;-85
2021/12/29 04:17:30;;;;;;;19.98;7.05;;;;;;;-144.19;100.00;76307.59;5073810;28;20494;-85
2021/12/29 04:22:41;;;;;;;17.35;7.60;;;;;;;-144.19;100.00;76313.50;5072368;28;20052;-87
2021/12/29 04:25:07;;;;;;;18.02;6.07;;;;;;;-144.19;100.00;76307.59;5073431;28;20048;-87
2021/12/29 04:27:34;;;;;;;14.80;5.73;;;;;;;-144.19;100.00;76319.41;5073207;28;20463;-85
2021/12/29 04:30:00;;;;;;;16.63;6.10;;;;;;;-144.19;100.00;76315.47;5073111;28;20052;-86
2021/12/29 04:32:27;;;;;;;15.48;5.65;;;;;;;-144.19;100.00;76307.59;5072650;28;20067;-84
2021/12/29 04:34:53;;;;;;;14.23;5.10;;;;;;;-144.19;100.00;76325.31;5077716;28;20044;-84
2021/12/29 04:37:19;;;;;;;11.47;4.50;;;;;;;-144.19;100.00;76331.22;5074670;28;20052;-85
2021/12/29 04:39:46;;;;;;;9.60;4.20;;;;;;;-144.19;100.00;76331.22;5091062;28;20403;-85
2021/12/29 04:42:12;;;;;;;15.07;3.90;;;;;;;-144.19;100.00;76323.34;5059722;28;20494;-87
2021/12/29 04:44:39;;;;;;;13.03;4.60;;;;;;;-144.19;100.00;76337.13;5073307;28;20059;-88
2021/12/29 04:47:07;;;;;;;9.73;4.27;;;;;;;-144.19;100.00;76325.31;5073110;28;20053;-83
2021/12/29 04:49:40;;;;;;;11.05;4.22;;;;;;;-144.19;100.00;76327.28;5072646;28;20057;-87
2021/12/29 04:52:13;;;;;;;9.00;4.13;;;;;;;-144.19;100.00;76323.34;5054080;28;20055;-85
2021/12/29 04:54:39;;;;;;;10.10;4.15;;;;;;;-144.19;100.00;76335.16;5055001;28;20040;-84
2021/12/29 04:57:06;;;;;;;10.47;3.83;;;;;;;-144.19;100.00;76327.28;5054459;28;20056;-86
2021/12/29 04:59:33;;;;;;;10.13;4.32;;;;;;;-144.19;100.00;76335.16;5072276;28;20051;-86
2021/12/29 05:01:59;;;;;;;12.40;5.27;;;;;;;-144.19;100.00;76331.22;5072751;28;20056;-87
2021/12/29 05:04:34;;;;;;;10.95;4.43;;;;;;;-144.19;100.00;76335.16;5054449;28;20487;-84
2021/12/29 05:09:48;;;;;;;13.27;5.28;;;;;;;-144.19;100.00;76335.16;5072518;28;20518;-83
2021/12/29 05:12:14;;;;;;;15.73;5.47;;;;;;;-144.19;100.00;76319.41;5072045;28;20062;-87
2021/12/29 05:14:41;;;;;;;16.40;6.27;;;;;;;-144.19;100.00;76321.38;5071664;28;20052;-84
2021/12/29 05:17:07;;;;;;;17.55;6.88;;;;;;;-144.19;100.00;76327.28;5054462;28;20794;-85
2021/12/29 05:19:34;;;;;;;19.48;6.65;;;;;;;-144.19;100.00;76331.22;5070848;28;20398;-85
2021/12/29 05:22:01;;;;;;;17.75;7.72;;;;;;;-144.19;100.00;76339.09;5054261;28;20048;-84
2021/12/29 05:24:28;;;;;;;19.00;8.07;;;;;;;-144.19;100.00;76335.16;5072303;28;20063;-85
2021/12/29 05:26:55;;;;;;;29.02;9.50;;;;;;;-144.19;100.00;76331.22;5054103;28;20048;-84
2021/12/29 05:29:22;;;;;;;23.85;9.13;;;;;;;-144.19;100.00;76331.22;5054474;28;20053;-86
2021/12/29 05:31:49;;;;;;;22.95;9.98;;;;;;;-144.19;100.00;76341.06;5072544;28;20052;-86
2021/12/29 05:34:15;;;;;;;27.13;10.93;;;;;;;-144.19;100.00;76350.88;5071343;28;20414;-84
2021/12/29 05:36:41;;;;;;;28.77;10.40;;;;;;;-144.19;100.00;76339.09;5091382;28;20294;-83
2021/12/29 05:39:08;;;;;;;29.63;11.80;;;;;;;-144.19;100.00;76358.75;5075951;28;20533;-86
2021/12/29 05:41:34;;;;;;;40.60;12.77;;;;;;;-144.19;100.00;76354.81;5064584;28;20054;-83
2021/12/29 05:44:01;;;;;;;30.17;13.53;;;;;;;-144.19;100.00;76358.75;5053528;28;20045;-83
2021/12/29 05:46:27;;;;;;;32.47;12.73;;;;;;;-144.19;100.00;76362.69;5072236;28;20049;-85
2021/12/29 05:48:54;;;;;;;41.20;14.37;;;;;;;-144.19;100.00;76354.81;5072258;28;20083;-89
2021/12/29 05:51:20;;;;;;;34.78;14.68;;;;;;;-144.19;100.00;76370.56;5054854;28;20103;-85
2021/12/29 05:53:47;;;;;;;36.88;13.93;;;;;;;-144.19;100.00;76358.75;5053739;28;20048;-88
2021/12/29 05:56:13;;;;;;;33.15;13.13;;;;;;;-144.19;100.00;76372.53;5071413;28;20062;-82
2021/12/29 05:58:40;;;;;;;33.17;13.53;;;;;;;-144.19;100.00;76370.56;5053964;28;20063;-85
2021/12/29 06:01:06;;;;;;;33.90;14.03;;;;;;;-144.19;100.00;76390.25;5071830;28;20055;-83
2021/12/29 06:03:33;;;;;;;33.20;14.75;;;;;;;-144.19;100.00;76384.34;5073677;28;20295;-85
2021/12/29 06:05:59;;;;;;;35.65;15.35;;;;;;;-144.19;100.00;76386.31;5075765;28;20063;-82
2021/12/29 06:08:25;;;;;;;34.60;14.05;;;;;;;-144.19;100.00;76378.44;5075885;28;20517;-85
2021/12/29 06:10:52;;;;;;;32.43;14.23;;;;;;;-144.19;100.00;76398.13;5075600;28;20055;-85
2021/12/29 06:13:18;;;;;;;27.50;12.70;;;;;;;-144.19;100.00;76394.19;5057236;28;20075;-87
2021/12/29 06:15:45;;;;;;;36.17;13.18;;;;;;;-144.19;100.00;76406.00;5057327;28;20055;-86
2021/12/29 06:18:11;;;;;;;29.27;13.02;;;;;;;-144.19;100.00;76398.13;5075622;28;20049;-88
2021/12/29 06:20:38;;;;;;;32.37;13.37;;;;;;;-144.19;100.00;76390.25;5075631;28;20048;-83
2021/12/29 06:23:07;;;;;;;27.52;12.27;;;;;;;-144.19;100.00;76413.88;5057390;28;20481;-87
2021/12/29 06:25:34;;;;;;;30.65;13.40;;;;;;;-144.19;100.00;76394.19;5057200;28;20063;-87
2021/12/29 06:28:00;;;;;;;26.88;12.68;;;;;;;-144.19;100.00;76398.13;5074933;28;20048;-85
2021/12/29 06:30:27;;;;;;;30.50;13.80;;;;;;;-144.19;100.00;76396.16;5074974;28;20498;-87
2021/12/29 06:32:53;;;;;;;30.48;12.23;;;;;;;-144.19;100.00;76404.03;5056445;28;20054;-87
2021/12/29 06:35:19;;;;;;;31.53;13.37;;;;;;;-144.19;100.00;76406.00;5065274;28;20044;-86
2021/12/29 06:37:46;;;;;;;29.50;13.70;;;;;;;-144.19;100.00;76417.81;5077212;28;20055;-87
2021/12/29 06:40:14;;;;;;;30.38;13.90;;;;;;;-144.19;100.00;76407.97;5088687;28;20491;-83
2021/12/29 06:42:41;;;;;;;31.60;14.45;;;;;;;-144.19;100.00;76417.81;5078622;28;20048;-83
2021/12/29 06:45:11;;;;;;;26.88;12.85;;;;;;;-144.19;100.00;76409.94;5057960;28;20045;-85
2021/12/29 06:47:38;;;;;;;28.75;12.45;;;;;;;-144.19;100.00;76406.00;5056779;28;20060;-84
2021/12/29 06:50:06;;;;;;;26.80;12.90;;;;;;;-144.19;100.00;76390.25;5057308;28;20454;-84
2021/12/29 06:52:33;;;;;;;29.95;12.60;;;;;;;-144.19;100.00;76404.03;5056444;28;20052;-86
2021/12/29 06:54:59;;;;;;;24.05;12.40;;;;;;;-144.19;100.00;76423.72;5074573;28;20673;-84
2021/12/29 06:57:25;;;;;;;26.90;13.05;;;;;;;-144.19;100.00;76421.75;5074697;28;20052;-86
2021/12/29 06:59:52;;;;;;;22.15;10.85;;;;;;;-144.19;100.00;76419.78;5056249;28;20506;-86
2021/12/29 07:02:19;;;;;;;27.67;12.70;;;;;;;-144.19;100.00;76425.69;5056239;28;20136;-87
2021/12/29 07:04:45;;;;;;;27.50;13.75;;;;;;;-144.19;100.00;76431.59;5056680;28;20119;-86
2021/12/29 07:07:12;;;;;;;25.00;11.43;;;;;;;-144.19;100.00;76441.44;5056404;28;20426;-85
2021/12/29 07:09:38;;;;;;;27.73;11.73;;;;;;;-144.19;100.00;76441.44;5056623;28;20052;-87
2021/12/29 07:12:05;;;;;;;26.92;12.48;;;;;;;-144.19;100.00;76447.34;5056559;28;20059;-86
2021/12/29 07:14:38;;;;;;;22.35;10.75;;;;;;;-144.19;100.00;76443.41;5056456;28;20055;-86
2021/12/29 07:17:05;;;;;;;22.15;11.30;;;;;;;-144.19;100.00;76457.19;5074590;28;20400;-86
2021/12/29 07:19:32;;;;;;;18.65;9.55;;;;;;;-144.19;100.00;76447.34;5056749;28;20449;-84
2021/12/29 07:22:00;;;;;;;21.70;10.35;;;;;;;-144.19;100.00;76465.06;5073832;28;20067;-86
2021/12/29 07:24:26;;;;;;;20.20;9.38;;;;;;;-144.19;100.00;76445.38;5056327;28;20070;-85
2021/12/29 07:26:53;;;;;;;19.03;9.83;;;;;;;-144.19;100.00;76453.25;5056275;28;20529;-86
2021/12/29 07:29:19;;;;;;;20.70;9.48;;;;;;;-144.19;100.00;76469.00;5073088;28;20599;-85
2021/12/29 07:31:46;;;;;;;20.48;10.57;;;;;;;-144.19;100.00;76480.81;5074540;28;20049;-84
2021/12/29 07:34:19;;;;;;;21.92;9.77;;;;;;;-144.19;100.00;76469.00;5074555;28;20048;-86
2021/12/29 07:36:45;;;;;;;20.25;10.02;;;;;;;-144.19;100.00;76459.16;5089201;28;20059;-86
2021/12/29 07:39:14;;;;;;;17.63;9.25;;;;;;;-144.19;100.00;76476.88;5056338;28;20044;-87
2021/12/29 07:41:42;;;;;;;16.92;8.93;;;;;;;-144.19;100.00;76472.94;5062609;28;20056;-85
2021/12/29 07:44:11;;;;;;;17.25;8.90;;;;;;;-144.19;100.00;76480.81;5074199;28;20053;-84
2021/12/29 07:46:38;;;;;;;18.38;8.57;;;;;;;-144.19;100.00;76484.75;5056282;28;20059;-86
2021/12/29 07:49:04;;;;;;;16.83;8.38;;;;;;;-144.19;100.00;76490.66;5073452;28;20056;-85
2021/12/29 07:51:31;;;;;;;18.00;9.23;;;;;;;-144.19;100.00;76480.81;5055900;28;20056;-88
2021/12/29 07:53:59;;;;;;;16.33;8.90;;;;;;;-144.19;100.00;76474.91;5075270;28;20498;-89
2021/12/29 07:56:26;;;;;;;16.10;8.85;;;;;;;-144.19;100.00;76504.41;5073193;28;20052;-86
2021/12/29 07:58:53;;;;;;;16.55;8.50;;;;;;;-144.19;100.00;76500.47;5072685;28;20490;-86
2021/12/29 08:01:19;;;;;;;16.98;8.48;;;;;;;-144.19;100.00;76498.50;5073594;28;20051;-86
2021/12/29 08:03:46;;;;;;;18.15;9.13;;;;;;;-144.19;100.00;76496.53;5073259;28;20087;-86
2021/12/29 08:06:15;;;;;;;16.70;8.60;;;;;;;-144.19;100.00;76502.44;5073413;28;20049;-83
2021/12/29 08:08:42;;;;;;;17.00;8.55;;;;;;;-144.19;100.00;76520.16;5073535;28;20403;-86
2021/12/29 08:11:08;;;;;;;18.13;7.60;;;;;;;-144.19;100.00;76522.13;5055394;28;20052;-87
2021/12/29 08:13:35;;;;;;;17.50;9.17;;;;;;;-144.19;100.00;76516.22;5071705;28;20692;-84
2021/12/29 08:16:01;;;;;;;15.93;7.80;;;;;;;-144.19;100.00;76531.97;5071891;28;20051;-83
2021/12/29 08:18:27;;;;;;;15.80;8.05;;;;;;;-144.19;100.00;76526.06;5056054;28;20374;-86
2021/12/29 08:20:54;;;;;;;13.23;6.87;;;;;;;-144.19;100.00;76541.81;5055686;28;20055;-88
2021/12/29 08:23:20;;;;;;;15.63;8.15;;;;;;;-144.19;100.00;76537.88;5055381;28;20052;-86
2021/12/29 08:25:47;;;;;;;17.07;8.30;;;;;;;-144.19;100.00;76526.06;5073249;28;20059;-86
2021/12/29 08:28:13;;;;;;;20.13;9.53;;;;;;;-144.19;100.00;76520.16;5070885;28;20052;-85
2021/12/29 08:30:40;;;;;;;17.38;8.25;;;;;;;-144.19;100.00;76518.19;5055535;28;20082;-85
2021/12/29 08:33:07;;;;;;;16.42;8.30;;;;;;;-144.19;100.00;76528.03;5071848;28;20166;-85
2021/12/29 08:35:33;;;;;;;18.17;7.87;;;;;;;-144.19;100.00;76528.03;5065638;28;20044;-85
2021/12/29 08:37:59;;;;;;;17.67;7.40;;;;;;;-144.19;100.00;76520.16;5075140;28;20779;-83
2021/12/29 08:40:26;;;;;;;25.13;9.15;;;;;;;-144.19;100.00;76531.97;5085853;28;20048;-85
2021/12/29 08:42:55;;;;;;;13.23;6.75;;;;;;;-144.19;100.00;76528.03;5056593;28;20498;-86
2021/12/29 08:45:22;;;;;;;12.25;6.30;;;;;;;-144.19;100.00;76528.03;5054560;28;20056;-90
2021/12/29 08:47:49;;;;;;;12.93;6.38;;;;;;;-144.19;100.00;76528.03;5054899;28;20060;-84
2021/12/29 08:50:19;;;;;;;14.60;7.50;;;;;;;-144.19;100.00;76514.25;5055444;28;20048;-85
2021/12/29 08:52:46;;;;;;;19.38;7.85;;;;;;;-144.19;100.00;76512.28;5072558;28;20056;-83
2021/12/29 08:55:13;;;;;;;14.00;7.68;;;;;;;-144.19;100.00;76524.09;5055416;28;20090;-85
2021/12/29 08:57:40;;;;;;;17.08;7.10;;;;;;;-144.19;100.00;76524.09;5072502;28;20056;-86
2021/12/29 09:00:12;;;;;;;16.25;7.60;;;;;;;-144.19;100.00;76526.06;5054896;28;20059;-86
2021/12/29 09:02:40;;;;;;;13.98;7.43;;;;;;;-144.19;100.00;76528.03;5054464;28;20418;-85
2021/12/29 09:05:08;;;;;;;18.02;8.13;;;;;;;-144.19;100.00;76535.91;5054933;28;20047;-84
2021/12/29 09:07:34;;;;;;;22.17;8.68;;;;;;;-144.19;100.00;76533.94;5071509;28;20506;-84
2021/12/29 09:10:03;;;;;;;20.43;8.17;;;;;;;-144.19;100.00;76528.03;5074725;28;20067;-87
2021/12/29 09:12:30;;;;;;;17.27;8.13;;;;;;;-144.19;100.00;76520.16;5060971;28;20062;-89
2021/12/29 09:14:56;;;;;;;20.70;8.50;;;;;;;-144.19;100.00;76520.16;5065207;28;20044;-87
2021/12/29 09:17:23;;;;;;;23.23;9.17;;;;;;;-144.19;100.00;76510.31;5084174;28;20417;-87
2021/12/29 09:19:50;;;;;;;23.13;9.70;;;;;;;-144.19;100.00;76518.19;5077304;28;20135;-86
2021/12/29 09:22:16;;;;;;;20.60;9.55;;;;;;;-144.19;100.00;76524.09;5054324;28;20056;-87
2021/12/29 09:24:45;;;;;;;23.63;10.10;;;;;;;-144.19;100.00;76539.84;5071877;28;20045;-82
2021/12/29 09:27:15;;;;;;;23.13;11.68;;;;;;;-144.19;100.00;76520.16;5067871;28;20119;-85
2021/12/29 09:29:42;;;;;;;26.77;10.15;;;;;;;-144.19;100.00;76524.09;5059418;28;20327;-85
2021/12/29 09:32:08;;;;;;;27.05;11.30;;;;;;;-144.19;100.00;76510.31;5053792;28;20048;-88
2021/12/29 09:34:35;;;;;;;24.83;10.40;;;;;;;-144.19;100.00;76520.16;5074213;28;20036;-84
2021/12/29 09:37:04;;;;;;;32.40;11.63;;;;;;;-144.19;100.00;76504.41;5073296;28;20048;-86
2021/12/29 09:39:30;;;;;;;26.27;10.85;;;;;;;-144.19;100.00;76520.16;5074948;28;20444;-87
2021/12/29 09:41:57;;;;;;;30.30;11.80;;;;;;;-144.19;100.00;76524.09;5073735;28;20050;-89
2021/12/29 09:44:24;;;;;;;34.13;12.68;;;;;;;-144.19;100.00;76531.97;5074569;28;20048;-84
2021/12/29 09:46:52;;;;;;;;;;;;;;;-144.19;100.00;76526.06;5052647;28;20410;-85
2021/12/29 09:49:19;;;;;;;32.65;12.60;;;;;;;-144.19;100.00;76543.78;5052295;28;19921;-86
2021/12/29 09:51:46;;;;;;;37.33;12.75;;;;;;;-144.19;100.00;76539.84;5063686;28;20080;-82
2021/12/29 09:54:12;;;;;;;34.67;13.13;;;;;;;-144.19;100.00;76543.78;5048445;28;20044;-83
2021/12/29 09:56:39;;;;;;;35.67;13.82;;;;;;;-144.19;100.00;76524.09;5049960;28;20052;-88
2021/12/29 09:59:05;;;;;;;44.60;14.77;;;;;;;-144.19;100.00;76524.09;5068740;28;20049;-86
2021/12/29 10:01:32;;;;;;;40.03;13.80;;;;;;;-144.19;100.00;76535.91;5058473;28;20291;-87
2021/12/29 10:03:59;;;;;;;37.63;13.65;;;;;;;-144.19;100.00;76547.72;5077072;28;20071;-87
2021/12/29 10:06:25;;;;;;;35.15;12.77;;;;;;;-144.19;100.00;76547.72;5057455;28;20525;-86
2021/12/29 10:08:53;;;;;;;35.45;14.60;;;;;;;-144.19;100.00;76539.84;5071532;28;20048;-85
2021/12/29 10:11:28;;;;;;;38.70;14.63;;;;;;;-144.19;100.00;76545.75;5070948;28;20434;-85
2021/12/29 10:13:56;;;;;;;42.33;14.85;;;;;;;-144.19;100.00;76539.84;5071615;28;20049;-87
2021/12/29 10:16:27;;;;;;;39.83;15.32;;;;;;;-144.19;100.00;76547.72;5057413;28;20070;-83
2021/12/29 10:19:06;;;;;;;44.45;15.38;;;;;;;-144.19;100.00;76541.81;5071562;28;20048;-86
2021/12/29 10:21:35;;;;;;;41.80;16.70;;;;;;;-144.19;100.00;76537.88;5054645;28;20055;-84
2021/12/29 10:24:03;;;;;;;41.45;15.95;;;;;;;-144.19;100.00;76531.97;5052502;28;20058;-85
2021/12/29 10:26:43;;;;;;;38.97;15.75;;;;;;;-144.19;100.00;76530.00;5054682;28;20131;-86
2021/12/29 10:29:12;;;;;;;42.65;16.25;;;;;;;-144.19;100.00;76528.03;5054330;28;20053;-84
2021/12/29 10:31:45;;;;;;;36.60;16.00;;;;;;;-144.19;100.00;76537.88;5064778;28;20134;-82
2021/12/29 10:34:18;;;;;;;33.60;15.60;;;;;;;-144.19;100.00;76520.16;5062290;28;20127;-87
2021/12/29 10:36:59;;;;;;;34.13;15.73;;;;;;;-144.19;100.00;76526.06;5082831;28;20532;-83
2021/12/29 10:39:38;;;;;;;34.50;14.88;;;;;;;-144.19;100.00;76526.06;5066905;28;20057;-84
2021/12/29 10:42:10;;;;;;;30.60;14.52;;;;;;;-144.19;100.00;76524.09;5082157;28;20048;-84
2021/12/29 10:44:40;;;;;;;33.85;14.18;;;;;;;-144.19;100.00;76518.19;5060590;28;20044;-86
2021/12/29 10:47:22;;;;;;;24.00;12.65;;;;;;;-144.19;100.00;76514.25;5064213;28;20100;-86
2021/12/29 10:49:57;;;;;;;32.63;13.55;;;;;;;-144.19;100.00;76516.22;5066728;28;20048;-86
2021/12/29 10:52:36;;;;;;;28.15;13.20;;;;;;;-144.19;100.00;76496.53;5063755;28;20082;-85
2021/12/29 10:55:07;;;;;;;28.60;13.20;;;;;;;-144.19;100.00;76500.47;5052370;28;20047;-88
2021/12/29 10:57:34;;;;;;;29.35;11.63;;;;;;;-144.19;100.00;76506.38;5048087;28;20548;-83
2021/12/29 11:00:03;;;;;;;29.30;12.80;;;;;;;-144.19;100.00;76512.28;5045638;28;20068;-85
2021/12/29 11:02:32;;;;;;;25.05;11.38;;;;;;;-144.19;100.00;76494.59;5048144;28;20044;-82
2021/12/29 11:05:04;;;;;;;29.90;12.77;;;;;;;-144.19;100.00;76488.69;5045648;28;20090;-88
2021/12/29 11:07:33;;;;;;;26.65;12.60;;;;;;;-144.19;100.00;76492.63;5048472;28;20049;-88
2021/12/29 11:10:13;;;;;;;26.58;11.02;;;;;;;-144.19;100.00;76486.72;5043293;28;20049;-88